createdAt,value
2019-01-17T00:01:08.817Z,7.00
2019-01-17T00:03:49.494Z,7.00
2019-01-17T00:06:37.434Z,7.00
2019-01-17T00:09:16.469Z,7.10
2019-01-17T00:12:10.687Z,7.10
2019-01-17T00:15:10.818Z,7.20
2019-01-17T00:18:17.287Z,7.20
2019-01-17T00:21:03.671Z,7.20
2019-01-17T00:24:02.703Z,7.20
2019-01-17T00:26:55.897Z,7.20
2019-01-17T00:29:55.671Z,7.20
2019-01-17T00:32:49.021Z,7.20
2019-01-17T00:35:29.735Z,7.20
2019-01-17T00:38:09.394Z,7.20
2019-01-17T00:41:12.677Z,7.10
2019-01-17T00:44:00.469Z,7.10
2019-01-17T00:46:47.046Z,7.10
2019-01-17T00:49:34.749Z,7.10
2019-01-17T00:52:21.150Z,7.10
2019-01-17T00:55:14.836Z,7.10
2019-01-17T00:58:05.867Z,7.10
2019-01-17T01:00:50.906Z,7.10
2019-01-17T01:03:37.509Z,7.10
2019-01-17T01:06:23.634Z,7.10
2019-01-17T01:09:13.085Z,7.10
2019-01-17T01:12:01.121Z,7.10
2019-01-17T01:14:41.673Z,7.00
2019-01-17T01:17:30.450Z,7.00
2019-01-17T01:20:18.333Z,7.00
2019-01-17T01:23:18.670Z,6.90
2019-01-17T01:26:12.886Z,6.90
2019-01-17T01:29:05.547Z,6.90
2019-01-17T01:31:55.422Z,6.80
2019-01-17T01:34:31.477Z,6.80
2019-01-17T01:37:17.809Z,6.70
2019-01-17T01:40:14.609Z,6.70
2019-01-17T01:43:12.373Z,6.70
2019-01-17T01:46:02.998Z,6.60
2019-01-17T01:48:46.317Z,6.50
2019-01-17T01:51:42.911Z,6.50
2019-01-17T01:54:11.478Z,6.50
2019-01-17T01:56:39.965Z,6.50
2019-01-17T01:59:08.482Z,6.50
2019-01-17T02:01:36.857Z,6.60
2019-01-17T02:04:05.466Z,6.60
2019-01-17T02:06:33.898Z,6.60
2019-01-17T02:09:04.085Z,6.60
2019-01-17T02:11:33.237Z,6.60
2019-01-17T02:14:01.662Z,6.70
2019-01-17T02:16:30.222Z,6.70
2019-01-17T02:18:59.638Z,6.60
2019-01-17T02:21:28.266Z,6.60
2019-01-17T02:23:58.210Z,6.70
2019-01-17T02:26:26.749Z,6.70
2019-01-17T02:28:55.253Z,6.70
2019-01-17T02:31:23.630Z,6.70
2019-01-17T02:33:52.015Z,6.60
2019-01-17T02:36:20.521Z,6.60
2019-01-17T02:38:48.829Z,6.60
2019-01-17T02:41:17.421Z,6.60
2019-01-17T02:43:45.829Z,6.60
2019-01-17T02:46:14.330Z,6.60
2019-01-17T02:48:42.843Z,6.60
2019-01-17T02:51:11.314Z,6.60
2019-01-17T02:53:39.740Z,6.60
2019-01-17T02:56:08.284Z,6.70
2019-01-17T02:58:36.697Z,6.60
2019-01-17T03:01:05.483Z,6.70
2019-01-17T03:03:34.206Z,6.70
2019-01-17T03:06:04.541Z,6.80
2019-01-17T03:08:33.057Z,6.80
2019-01-17T03:11:01.596Z,6.80
2019-01-17T03:13:30.170Z,6.80
2019-01-17T03:15:58.682Z,6.80
2019-01-17T03:18:27.181Z,6.70
2019-01-17T03:20:55.689Z,6.70
2019-01-17T03:23:24.017Z,6.60
2019-01-17T03:25:52.474Z,6.60
2019-01-17T03:28:20.881Z,6.60
2019-01-17T03:30:49.395Z,6.60
2019-01-17T03:33:18.015Z,6.60
2019-01-17T03:35:46.749Z,6.50
2019-01-17T03:38:15.253Z,6.60
2019-01-17T03:40:43.774Z,6.70
2019-01-17T03:43:12.213Z,6.70
2019-01-17T03:45:40.529Z,6.80
2019-01-17T03:48:09.141Z,6.90
2019-01-17T03:50:37.569Z,6.90
2019-01-17T03:53:06.045Z,6.90
2019-01-17T03:55:34.767Z,6.90
2019-01-17T03:58:03.501Z,6.90
2019-01-17T04:00:31.931Z,6.90
2019-01-17T04:03:00.438Z,6.90
2019-01-17T04:05:30.348Z,7.00
2019-01-17T04:07:58.817Z,7.00
2019-01-17T04:10:27.138Z,7.10
2019-01-17T04:12:55.591Z,7.10
2019-01-17T04:15:23.997Z,7.10
2019-01-17T04:17:53.386Z,7.20
2019-01-17T04:20:21.902Z,7.20
2019-01-17T04:22:50.221Z,7.20
2019-01-17T04:25:18.694Z,7.20
2019-01-17T04:27:47.372Z,7.30
2019-01-17T04:30:19.133Z,7.30
2019-01-17T04:32:47.550Z,7.30
2019-01-17T04:35:16.201Z,7.30
2019-01-17T04:37:44.814Z,7.40
2019-01-17T04:40:13.636Z,7.40
2019-01-17T04:42:42.049Z,7.40
2019-01-17T04:45:11.305Z,7.40
2019-01-17T04:47:39.906Z,7.50
2019-01-17T04:50:09.891Z,7.40
2019-01-17T04:52:38.490Z,7.40
2019-01-17T04:55:08.263Z,7.40
2019-01-17T04:57:36.726Z,7.40
2019-01-17T05:00:08.318Z,7.30
2019-01-17T05:02:37.401Z,7.30
2019-01-17T05:05:06.334Z,7.30
2019-01-17T05:07:34.934Z,7.20
2019-01-17T05:10:04.486Z,7.30
2019-01-17T05:12:33.119Z,7.30
2019-01-17T05:15:01.643Z,7.30
2019-01-17T05:17:30.115Z,7.30
2019-01-17T05:19:58.514Z,7.30
2019-01-17T05:22:26.974Z,7.40
2019-01-17T05:24:55.388Z,7.50
2019-01-17T05:27:23.761Z,7.50
2019-01-17T05:29:52.261Z,7.60
2019-01-17T05:32:20.581Z,7.60
2019-01-17T05:34:49.024Z,7.60
2019-01-17T05:37:17.538Z,7.60
2019-01-17T05:39:46.042Z,7.60
2019-01-17T05:42:14.566Z,7.60
2019-01-17T05:44:43.466Z,7.60
2019-01-17T05:47:11.790Z,7.70
2019-01-17T05:49:40.252Z,7.70
2019-01-17T05:52:08.576Z,7.80
2019-01-17T05:54:37.061Z,7.80
2019-01-17T05:57:05.581Z,7.90
2019-01-17T05:59:34.170Z,7.90
2019-01-17T06:02:02.781Z,8.00
2019-01-17T06:04:31.266Z,8.10
2019-01-17T06:06:59.582Z,8.10
2019-01-17T06:09:28.090Z,8.10
2019-01-17T06:11:56.609Z,8.20
2019-01-17T06:14:25.600Z,8.20
2019-01-17T06:16:54.125Z,8.30
2019-01-17T06:19:22.685Z,8.30
2019-01-17T06:21:51.305Z,8.40
2019-01-17T06:24:19.801Z,8.40
2019-01-17T06:26:48.463Z,8.40
2019-01-17T06:29:17.001Z,8.40
2019-01-17T06:31:45.509Z,8.50
2019-01-17T06:34:13.989Z,8.50
2019-01-17T06:36:42.322Z,8.50
2019-01-17T06:39:10.792Z,8.50
2019-01-17T06:41:39.317Z,8.60
2019-01-17T06:44:07.757Z,8.60
2019-01-17T06:46:36.163Z,8.70
2019-01-17T06:49:04.741Z,8.70
2019-01-17T06:51:33.249Z,8.80
2019-01-17T06:54:01.747Z,8.80
2019-01-17T06:56:30.214Z,8.90
2019-01-17T06:58:59.646Z,8.90
2019-01-17T07:01:28.185Z,8.90
2019-01-17T07:03:56.505Z,9.00
2019-01-17T07:06:25.759Z,9.00
2019-01-17T07:08:54.417Z,9.10
2019-01-17T07:11:23.035Z,9.20
2019-01-17T07:13:51.545Z,9.30
2019-01-17T07:16:20.030Z,9.30
2019-01-17T07:18:48.426Z,9.20
2019-01-17T07:21:17.049Z,9.20
2019-01-17T07:23:45.533Z,9.20
2019-01-17T07:26:13.957Z,9.30
2019-01-17T07:28:42.893Z,9.40
2019-01-17T07:31:11.535Z,9.40
2019-01-17T07:33:40.313Z,9.50
2019-01-17T07:36:08.905Z,9.50
2019-01-17T07:38:37.221Z,9.60
2019-01-17T07:41:06.173Z,9.60
2019-01-17T07:43:34.577Z,9.70
2019-01-17T07:46:03.284Z,9.90
2019-01-17T07:48:31.785Z,10.00
2019-01-17T07:51:00.305Z,10.10
2019-01-17T07:53:28.733Z,10.20
2019-01-17T07:56:01.650Z,10.20
2019-01-17T07:58:29.971Z,10.20
2019-01-17T08:00:58.498Z,10.10
2019-01-17T08:03:26.813Z,9.90
2019-01-17T08:05:56.373Z,9.80
2019-01-17T08:08:25.246Z,9.70
2019-01-17T08:10:53.754Z,9.60
2019-01-17T08:13:22.289Z,9.60
2019-01-17T08:15:50.750Z,9.60
2019-01-17T08:18:19.281Z,9.70
2019-01-17T08:20:47.649Z,9.90
2019-01-17T08:23:16.838Z,10.20
2019-01-17T08:25:45.158Z,10.60
2019-01-17T08:28:17.981Z,11.00
2019-01-17T08:30:46.397Z,11.30
2019-01-17T08:33:15.262Z,11.60
2019-01-17T08:35:43.568Z,11.80
2019-01-17T08:38:12.110Z,12.00
2019-01-17T08:40:40.625Z,12.10
2019-01-17T08:43:09.009Z,12.30
2019-01-17T08:45:37.478Z,12.40
2019-01-17T08:48:06.062Z,12.50
2019-01-17T08:50:34.386Z,12.70
2019-01-17T08:53:03.218Z,12.80
2019-01-17T08:55:32.315Z,12.80
2019-01-17T08:58:00.919Z,12.90
2019-01-17T09:00:29.314Z,13.00
2019-01-17T09:02:57.888Z,13.00
2019-01-17T09:05:27.253Z,13.00
2019-01-17T09:07:57.502Z,13.10
2019-01-17T09:10:30.149Z,13.10
2019-01-17T09:12:58.660Z,13.20
2019-01-17T09:15:29.371Z,13.30
2019-01-17T09:17:58.018Z,13.30
2019-01-17T09:20:26.424Z,13.40
2019-01-17T09:22:56.018Z,13.40
2019-01-17T09:25:26.404Z,13.40
2019-01-17T09:27:54.817Z,13.50
2019-01-17T09:30:23.528Z,13.50
2019-01-17T09:32:52.252Z,13.60
2019-01-17T09:35:21.422Z,13.60
2019-01-17T09:37:50.921Z,13.60
2019-01-17T09:40:20.930Z,13.60
2019-01-17T09:42:49.714Z,13.60
2019-01-17T09:47:50.377Z,13.60
2019-01-17T09:50:21.362Z,13.60
2019-01-17T09:52:50.668Z,13.50
2019-01-17T09:55:20.426Z,13.30
2019-01-17T09:57:49.228Z,13.20
2019-01-17T10:00:37.689Z,13.10
2019-01-17T10:03:06.611Z,13.10
2019-01-17T10:05:35.334Z,13.10
2019-01-17T10:08:03.953Z,13.20
2019-01-17T10:10:33.296Z,13.10
2019-01-17T10:13:01.756Z,13.20
2019-01-17T10:15:40.102Z,13.20
2019-01-17T10:19:03.003Z,13.20
2019-01-17T10:22:40.700Z,13.30
2019-01-17T10:25:44.529Z,13.30
2019-01-17T10:28:40.794Z,13.20
2019-01-17T10:31:42.712Z,13.00
2019-01-17T10:34:32.538Z,12.70
2019-01-17T10:37:58.824Z,12.50
2019-01-17T10:41:06.638Z,12.30
2019-01-17T10:44:22.779Z,12.40
2019-01-17T10:47:38.111Z,12.40
2019-01-17T10:50:53.185Z,12.50
2019-01-17T10:54:14.733Z,12.50
2019-01-17T10:57:13.603Z,12.60
2019-01-17T11:00:14.085Z,12.70
2019-01-17T11:03:00.917Z,13.00
2019-01-17T11:06:05.535Z,13.20
2019-01-17T11:09:09.795Z,13.40
2019-01-17T11:12:15.998Z,13.60
2019-01-17T11:15:13.499Z,13.70
2019-01-17T11:18:11.804Z,13.70
2019-01-17T11:21:14.279Z,13.70
2019-01-17T11:24:27.161Z,13.80
2019-01-17T11:27:35.965Z,13.80
2019-01-17T11:30:37.600Z,13.80
2019-01-17T11:33:27.435Z,13.90
2019-01-17T11:36:44.082Z,14.00
2019-01-17T11:39:45.944Z,14.00
2019-01-17T11:43:05.613Z,14.10
2019-01-17T11:45:54.851Z,14.20
2019-01-17T11:48:56.810Z,14.20
2019-01-17T11:51:54.659Z,14.20
2019-01-17T11:54:56.185Z,14.20
2019-01-17T11:57:41.026Z,14.00
2019-01-17T12:01:03.914Z,13.90
2019-01-17T12:04:09.514Z,14.00
2019-01-17T12:06:38.710Z,14.00
2019-01-17T12:09:07.912Z,13.90
2019-01-17T12:11:38.654Z,13.90
2019-01-17T12:14:12.730Z,13.90
2019-01-17T12:16:42.386Z,14.00
2019-01-17T12:19:11.385Z,14.20
2019-01-17T12:21:40.803Z,14.40
2019-01-17T12:24:09.542Z,14.40
2019-01-17T12:26:47.464Z,14.40
2019-01-17T12:29:13.467Z,14.30
2019-01-17T12:31:42.508Z,14.30
2019-01-17T12:34:14.837Z,14.30
2019-01-17T12:36:43.674Z,14.40
2019-01-17T12:39:13.429Z,14.50
2019-01-17T12:41:42.965Z,14.60
2019-01-17T12:44:12.602Z,14.60
2019-01-17T12:46:41.456Z,14.60
2019-01-17T12:49:10.751Z,14.60
2019-01-17T12:51:39.963Z,14.60
2019-01-17T12:54:09.375Z,14.60
2019-01-17T12:56:38.114Z,14.60
2019-01-17T12:59:13.174Z,14.90
2019-01-17T13:01:43.316Z,15.10
2019-01-17T13:04:12.493Z,15.90
2019-01-17T13:06:41.208Z,16.60
2019-01-17T13:09:10.406Z,17.20
2019-01-17T13:11:39.118Z,17.80
2019-01-17T13:14:07.765Z,18.00
2019-01-17T13:16:36.659Z,17.70
2019-01-17T13:19:05.530Z,17.10
2019-01-17T13:21:34.501Z,16.70
2019-01-17T13:24:04.065Z,16.40
2019-01-17T13:26:32.801Z,16.10
2019-01-17T13:29:01.564Z,15.80
2019-01-17T13:31:30.366Z,15.60
2019-01-17T13:33:59.085Z,15.30
2019-01-17T13:36:30.040Z,15.20
2019-01-17T13:38:58.846Z,15.40
2019-01-17T13:41:27.392Z,15.80
2019-01-17T13:43:56.361Z,15.90
2019-01-17T13:46:24.985Z,15.90
2019-01-17T13:48:54.040Z,15.70
2019-01-17T13:51:22.742Z,15.50
2019-01-17T13:53:51.319Z,15.20
2019-01-17T13:56:20.045Z,15.00
2019-01-17T13:58:48.809Z,14.80
2019-01-17T14:01:17.508Z,14.50
2019-01-17T14:03:46.366Z,14.40
2019-01-17T14:06:15.106Z,14.30
2019-01-17T14:08:43.837Z,14.30
2019-01-17T14:11:12.457Z,14.10
2019-01-17T14:13:41.356Z,14.10
2019-01-17T14:16:10.274Z,14.00
2019-01-17T14:18:39.115Z,13.90
2019-01-17T14:21:07.870Z,13.80
2019-01-17T14:23:36.571Z,13.70
2019-01-17T14:26:05.258Z,13.60
2019-01-17T14:28:34.141Z,13.60
2019-01-17T14:31:02.681Z,13.50
2019-01-17T14:33:31.361Z,13.40
2019-01-17T14:35:59.973Z,13.30
2019-01-17T14:38:29.238Z,13.20
2019-01-17T14:40:58.385Z,13.10
2019-01-17T14:43:27.217Z,13.00
2019-01-17T14:45:56.133Z,12.90
2019-01-17T14:48:24.561Z,12.80
2019-01-17T14:50:53.521Z,12.70
2019-01-17T14:53:22.193Z,12.60
2019-01-17T14:55:51.006Z,12.50
2019-01-17T14:58:19.661Z,12.40
2019-01-17T15:00:48.462Z,12.40
2019-01-17T15:03:20.047Z,12.30
2019-01-17T15:05:50.516Z,12.20
2019-01-17T15:08:18.998Z,12.00
2019-01-17T15:10:47.618Z,12.00
2019-01-17T15:13:16.396Z,11.80
2019-01-17T15:15:45.148Z,11.70
2019-01-17T15:18:14.662Z,11.60
2019-01-17T15:20:43.454Z,11.50
2019-01-17T15:23:12.685Z,11.40
2019-01-17T15:25:41.371Z,11.40
2019-01-17T15:28:10.478Z,11.30
2019-01-17T15:30:39.381Z,11.20
2019-01-17T15:33:08.910Z,11.20
2019-01-17T15:35:38.294Z,11.20
2019-01-17T15:38:07.325Z,11.10
2019-01-17T15:40:36.916Z,11.10
2019-01-17T15:43:08.661Z,11.00
2019-01-17T15:45:39.074Z,11.00
2019-01-17T15:48:10.254Z,10.90
2019-01-17T15:50:41.898Z,10.90
2019-01-17T15:53:12.873Z,10.90
2019-01-17T15:55:44.735Z,10.80
2019-01-17T15:58:17.467Z,10.80
2019-01-17T16:00:48.482Z,10.80
2019-01-17T16:03:19.898Z,10.80
2019-01-17T16:06:11.037Z,10.80
2019-01-17T16:08:41.324Z,10.90
2019-01-17T16:11:10.230Z,10.90
2019-01-17T16:13:39.356Z,10.90
2019-01-17T16:16:08.633Z,10.90
2019-01-17T16:18:40.957Z,10.90
2019-01-17T16:21:10.053Z,10.90
2019-01-17T16:23:38.804Z,11.00
2019-01-17T16:26:07.610Z,11.00
2019-01-17T16:28:36.270Z,11.00
2019-01-17T16:31:05.042Z,11.00
2019-01-17T16:33:33.985Z,11.00
2019-01-17T16:36:02.778Z,11.00
2019-01-17T16:38:31.817Z,11.00
2019-01-17T16:41:00.385Z,10.90
2019-01-17T16:43:29.382Z,11.00
2019-01-17T16:45:58.022Z,10.90
2019-01-17T16:48:27.289Z,11.00
2019-01-17T16:50:55.879Z,11.00
2019-01-17T16:53:26.828Z,10.90
2019-01-17T16:55:56.644Z,10.90
2019-01-17T16:58:25.430Z,10.90
2019-01-17T17:00:54.259Z,10.80
2019-01-17T17:03:22.763Z,10.70
2019-01-17T17:05:53.277Z,10.70
2019-01-17T17:08:22.231Z,10.60
2019-01-17T17:10:51.181Z,10.60
2019-01-17T17:13:20.411Z,10.50
2019-01-17T17:15:49.328Z,10.50
2019-01-17T17:18:18.309Z,10.50
2019-01-17T17:20:47.281Z,10.40
2019-01-17T17:23:15.991Z,10.50
2019-01-17T17:25:44.736Z,10.50
2019-01-17T17:28:13.421Z,10.50
2019-01-17T17:30:42.283Z,10.50
2019-01-17T17:33:11.168Z,10.60
2019-01-17T17:35:40.186Z,10.60
2019-01-17T17:38:08.955Z,10.60
2019-01-17T17:40:37.918Z,10.60
2019-01-17T17:43:07.074Z,10.60
2019-01-17T17:45:36.824Z,10.60
2019-01-17T17:48:06.129Z,10.60
2019-01-17T17:50:35.198Z,10.60
2019-01-17T17:53:04.040Z,10.60
2019-01-17T17:55:33.869Z,10.60
2019-01-17T17:58:02.679Z,10.60
2019-01-17T18:00:57.235Z,10.60
2019-01-17T18:03:26.049Z,10.50
2019-01-17T18:05:55.528Z,10.50
2019-01-17T18:08:24.433Z,10.50
2019-01-17T18:10:53.206Z,10.50
2019-01-17T18:13:21.891Z,10.60
2019-01-17T18:15:50.663Z,10.60
2019-01-17T18:18:20.119Z,10.60
2019-01-17T18:21:08.420Z,10.60
2019-01-17T18:23:37.579Z,10.60
2019-01-17T18:26:06.277Z,10.70
2019-01-17T18:28:35.194Z,10.80
2019-01-17T18:31:04.257Z,10.80
2019-01-17T18:33:32.794Z,10.80
2019-01-17T18:38:58.017Z,10.80
2019-01-17T18:41:26.620Z,10.80
2019-01-17T18:43:55.876Z,10.80
2019-01-17T18:46:24.876Z,10.70
2019-01-17T18:48:53.589Z,10.70
2019-01-17T18:51:23.332Z,10.60
2019-01-17T18:53:52.293Z,10.60
2019-01-17T18:56:20.904Z,10.60
2019-01-17T18:58:49.444Z,10.50
2019-01-17T19:01:18.265Z,10.60
2019-01-17T19:03:47.413Z,10.60
2019-01-17T19:06:15.909Z,10.60
2019-01-17T19:08:44.592Z,10.60
2019-01-17T19:11:13.550Z,10.60
2019-01-17T19:13:42.507Z,10.60
2019-01-17T19:16:11.629Z,10.70
2019-01-17T19:18:41.837Z,10.70
2019-01-17T19:21:10.680Z,10.70
2019-01-17T19:23:39.697Z,10.80
2019-01-17T19:26:08.789Z,10.80
2019-01-17T19:28:37.401Z,10.80
2019-01-17T19:31:06.641Z,10.80
2019-01-17T19:33:35.395Z,10.80
2019-01-17T19:36:04.744Z,10.80
2019-01-17T19:38:33.423Z,10.90
2019-01-17T19:41:02.085Z,10.90
2019-01-17T19:43:30.783Z,10.90
2019-01-17T19:45:59.624Z,10.90
2019-01-17T19:48:28.157Z,10.90
2019-01-17T19:50:57.116Z,10.90
2019-01-17T19:53:26.045Z,10.90
2019-01-17T19:55:54.882Z,11.00
2019-01-17T19:58:28.941Z,11.00
2019-01-17T20:00:57.017Z,11.00
2019-01-17T20:03:26.437Z,11.10
2019-01-17T20:05:56.709Z,11.10
2019-01-17T20:08:26.026Z,11.20
2019-01-17T20:10:55.081Z,11.20
2019-01-17T20:13:24.844Z,11.20
2019-01-17T20:15:53.872Z,11.20
2019-01-17T20:18:23.175Z,11.20
2019-01-17T20:20:55.140Z,11.20
2019-01-17T20:23:27.851Z,11.20
2019-01-17T20:25:57.446Z,11.30
2019-01-17T20:28:28.374Z,11.20
2019-01-17T20:30:57.098Z,11.20
2019-01-17T20:33:25.722Z,11.30
2019-01-17T20:35:54.911Z,11.30
2019-01-17T20:38:24.344Z,11.30
2019-01-17T20:40:58.193Z,11.30
2019-01-17T20:43:23.852Z,11.30
2019-01-17T20:45:53.004Z,11.30
2019-01-17T20:48:21.633Z,11.30
2019-01-17T20:50:50.512Z,11.30
2019-01-17T20:53:22.577Z,11.30
2019-01-17T20:55:51.385Z,11.40
2019-01-17T20:58:20.501Z,11.40
2019-01-17T21:01:17.469Z,11.40
2019-01-17T21:03:46.399Z,11.40
2019-01-17T21:06:15.596Z,11.40
2019-01-17T21:08:44.448Z,11.40
2019-01-17T21:11:13.243Z,11.40
2019-01-17T21:13:42.232Z,11.30
2019-01-17T21:16:11.224Z,11.30
2019-01-17T21:18:39.886Z,11.30
2019-01-17T21:21:08.833Z,11.20
2019-01-17T21:23:37.889Z,11.20
2019-01-17T21:26:06.870Z,11.20
2019-01-17T21:28:35.729Z,11.10
2019-01-17T21:31:04.962Z,11.10
2019-01-17T21:33:35.110Z,11.10
2019-01-17T21:36:08.670Z,11.10
2019-01-17T21:38:39.261Z,11.00
2019-01-17T21:41:08.966Z,11.00
2019-01-17T21:43:37.628Z,11.00
2019-01-17T21:46:06.722Z,11.00
2019-01-17T21:48:36.207Z,11.00
2019-01-17T21:51:05.221Z,11.00
2019-01-17T21:53:37.506Z,11.00
2019-01-17T21:56:06.677Z,10.90
2019-01-17T21:58:38.138Z,10.90
2019-01-17T22:01:07.320Z,10.80
2019-01-17T22:03:36.369Z,10.70
2019-01-17T22:06:05.464Z,10.70
2019-01-17T22:08:34.201Z,10.70
2019-01-17T22:11:03.232Z,10.60
2019-01-17T22:13:32.607Z,10.60
2019-01-17T22:16:02.484Z,10.60
2019-01-17T22:18:31.668Z,10.60
2019-01-17T22:21:00.777Z,10.50
2019-01-17T22:23:29.888Z,10.50
2019-01-17T22:25:59.085Z,10.40
2019-01-17T22:28:29.475Z,10.40
2019-01-17T22:30:58.337Z,10.40
2019-01-17T22:33:27.169Z,10.40
2019-01-17T22:35:55.909Z,10.40
2019-01-17T22:38:24.527Z,10.40
2019-01-17T22:40:53.565Z,10.40
2019-01-17T22:43:22.617Z,10.40
2019-01-17T22:45:51.224Z,10.40
2019-01-17T22:48:21.523Z,10.40
2019-01-17T22:50:50.350Z,10.50
2019-01-17T22:53:19.049Z,10.50
2019-01-17T22:55:48.221Z,10.60
2019-01-17T22:58:17.132Z,10.60
2019-01-17T23:01:21.137Z,10.70
2019-01-17T23:03:50.462Z,10.70
2019-01-17T23:06:19.385Z,10.80
2019-01-17T23:08:48.453Z,10.90
2019-01-17T23:11:17.731Z,10.90
2019-01-17T23:13:46.637Z,11.00
2019-01-17T23:16:15.730Z,11.00
2019-01-17T23:18:44.745Z,11.00
2019-01-17T23:21:13.492Z,11.10
2019-01-17T23:23:42.157Z,11.10
2019-01-17T23:26:10.672Z,11.10
2019-01-17T23:28:40.971Z,11.00
2019-01-17T23:31:09.676Z,11.00
2019-01-17T23:33:38.384Z,10.90
2019-01-17T23:36:07.451Z,10.80
2019-01-17T23:38:36.253Z,10.70
2019-01-17T23:41:05.491Z,10.60
2019-01-17T23:43:33.945Z,10.60
2019-01-17T23:46:03.113Z,10.50
2019-01-17T23:48:32.224Z,10.50
2019-01-17T23:51:00.941Z,10.50
2019-01-17T23:53:30.097Z,10.50
2019-01-17T23:55:59.056Z,10.60
2019-01-17T23:58:27.844Z,10.70
